Sacramento, CA

1:10 PM PST on March 01, 2015 (GMT -0800)
Sacramento Executive | Change Station
CLOSE
Current Station
Airport
Location: Sacramento,
Elevation: 26 ft
Nearby Weather Stations
Active Advisory: Hydrologic Statement Active Notice: Public Information Statement

Elev 26 ft 38.51 °N, 121.50 °W | Updated 17 minutes ago

Clear
Clear
62 °F
Feels Like 62 °F
N
8
Wind Variable Wind from NNW

Today
High -- | Low -- °F
--% Chance of Precip.
Yesterday
High -- | Low -- °F
Precip. -- in
6:38 AM 5:58 PM
Waxing Gibbous, 87% visible
Pressure 29.95 in
Visibility 10.0 miles
Clouds Clear
Dew Point 40 °F
Humidity 44%
Rainfall 0.00 in
Snow Depth Not available.
UV 6 out of 12
Pollen 8.80 out of 12
Air Quality Not available.
Flu Activity Not available.
METAR KSAC 012053Z 33007KT 10SM CLR 17/04 A2995 RMK AO2 SLP142 T01670044 58017

More Conditions Fewer Conditions

Pressure 29.95 in
Visibility 10.0 miles
Clouds Clear
Dew Point 40 °F
Humidity 44%
Rainfall 0.00 in
Snow Depth Not available.
UV 6 out of 12
Pollen 8.80 out of 12
Air Quality Not available.
Flu Activity Not available.
METAR KSAC 012053Z 33007KT 10SM CLR 17/04 A2995 RMK AO2 SLP142 T01670044 58017

More Conditions Fewer Conditions

10-Day Weather Forecast

Almanac

Astronomy

Mar. 01, 2015 Rise Set
Actual Time
Civil Twilight
Nautical Twilight
Astronomical Twilight
Moon
Length of Visible Light
Length of Day
Tomorrow will be .
, % of the Moon is Illuminated

Today's Extremes

State Highs State Lows

Community

WunderPhotos

Upload Photos

1,801,559 photos uploaded!

WunderBlogs® & News

Nearby

Air Quality

  Air Quality AQ Index Pollutant
Not available.

Snow Depth

Station Depth Elevation

Earthquake Activity

City Distance Mag. Time & Date
Minimum magnitude displayed is 2.5.

Coastal Water Temperatures

Place Temperature

Nearby Weather Stations

Hydrologic Statement
Statement as of 11:58 AM PST on February 28, 2015

Forecast information for
Sacramento River at Colusa bridge.
* At 11:45 am Saturday the stage was 41.9 feet.
* Forecast to fluctuate near 42.0 ft thru near Monday noon.
* Flood stage 70.0 ft
* monitor stage 63.0 ft


&&

Lat... Lon 3923 12214 3922 12188 3907 12180 3905 12196
      3922 12204